Time;durP1;ratioP1;P1;durP2;ratioP2;P2;SDS_P1;SDS_P2;PMS_P1;PMS_P2;Temp;Humidity;BMP_temperature;BMP_pressure;BME280_temperature;BME280_humidity;BME280_pressure;Samples;Min_cycle;Max_cycle;Signal;HPM_P1;HPM_P2
2022/12/13 00:03:33;;;;;;;15.60;7.20;;;;;;;-1.65;98.66;99944.43;3407534;86;98525;-78
2022/12/13 00:08:34;;;;;;;15.93;8.03;;;;;;;-1.68;98.61;99945.06;3408827;84;33235;-78
2022/12/13 00:13:35;;;;;;;15.88;7.45;;;;;;;-1.69;98.85;99946.72;3414383;85;98803;-78
2022/12/13 00:18:36;;;;;;;15.20;6.23;;;;;;;-1.71;98.99;99955.67;3409699;86;33316;-78
2022/12/13 00:23:37;;;;;;;16.87;7.63;;;;;;;-1.74;98.87;99947.64;3397209;84;98847;-78
2022/12/13 00:28:38;;;;;;;14.03;6.70;;;;;;;-1.77;98.61;99946.90;3407944;86;33858;-78
2022/12/13 00:33:39;;;;;;;17.27;7.23;;;;;;;-1.83;98.79;99956.22;3417100;85;98679;-77
2022/12/13 00:38:40;;;;;;;14.43;6.20;;;;;;;-1.83;98.71;99963.50;3403241;84;31820;-77
2022/12/13 00:43:42;;;;;;;15.28;6.08;;;;;;;-1.88;98.99;99968.48;3334058;86;98557;-78
2022/12/13 00:48:49;;;;;;;15.20;7.70;;;;;;;-1.90;98.95;99968.00;3474112;83;33417;-78
2022/12/13 00:53:50;;;;;;;14.90;6.57;;;;;;;-1.92;98.60;99975.58;3484422;82;98688;-79
2022/12/13 00:58:53;;;;;;;12.50;5.57;;;;;;;-1.97;98.22;99970.87;3491717;83;33312;-78
2022/12/13 01:03:56;;;;;;;11.27;5.43;;;;;;;-2.06;98.27;99973.50;3481838;82;98530;-78
2022/12/13 01:08:57;;;;;;;19.30;6.93;;;;;;;-2.09;98.41;99966.58;3486635;83;33313;-78
2022/12/13 01:13:58;;;;;;;13.68;5.92;;;;;;;-2.11;98.44;99953.93;3477066;83;98755;-78
2022/12/13 01:18:58;;;;;;;13.23;6.57;;;;;;;-2.11;98.19;99947.19;3496286;82;33258;-78
2022/12/13 01:24:05;;;;;;;14.73;6.33;;;;;;;-2.18;98.07;99952.22;3483078;83;98904;-78
2022/12/13 01:29:07;;;;;;;15.07;5.63;;;;;;;-2.21;98.25;99960.36;3483273;82;25864;-78
2022/12/13 01:34:11;;;;;;;13.63;6.10;;;;;;;-2.23;97.89;99961.77;3485983;82;98796;-77
2022/12/13 01:39:16;;;;;;;12.97;5.73;;;;;;;-2.27;98.19;99954.84;3496540;84;33280;-78
2022/12/13 01:45:00;;;;;;;13.77;5.53;;;;;;;-2.29;98.17;99958.94;3475981;83;98680;-78
2022/12/13 01:50:13;;;;;;;12.07;5.60;;;;;;;-2.31;98.04;99963.28;3444726;82;26403;-78
2022/12/13 01:55:18;;;;;;;13.90;6.73;;;;;;;-2.36;98.14;99968.00;3407956;84;98873;-78
2022/12/13 02:00:19;;;;;;;12.67;6.07;;;;;;;-2.36;97.90;99962.61;3414387;84;25883;-77
2022/12/13 02:05:31;;;;;;;12.77;6.23;;;;;;;-2.40;97.90;99969.70;3409020;85;98751;-78
2022/12/13 02:10:32;;;;;;;11.03;5.30;;;;;;;-2.39;98.23;99968.59;3407579;86;26526;-78
2022/12/13 02:15:56;;;;;;;13.00;5.63;;;;;;;-2.39;98.20;99962.66;3403373;84;98385;-77
2022/12/13 02:21:14;;;;;;;14.43;5.83;;;;;;;-2.40;97.79;99970.48;3408823;85;33331;-78
2022/12/13 02:26:36;;;;;;;15.15;5.90;;;;;;;-2.44;97.89;99961.42;3406440;85;98465;-77
2022/12/13 02:31:48;;;;;;;12.23;6.00;;;;;;;-2.43;97.83;99962.20;3405721;84;33333;-78
2022/12/13 02:36:58;;;;;;;10.70;4.90;;;;;;;-2.47;97.39;99963.36;3413115;85;98331;-77
2022/12/13 02:42:06;;;;;;;8.93;4.60;;;;;;;-2.51;97.37;99958.89;3415829;85;25874;-77
2022/12/13 02:47:17;;;;;;;10.93;5.00;;;;;;;-2.55;97.29;99960.59;3404689;84;98157;-77
2022/12/13 02:52:23;;;;;;;13.27;5.47;;;;;;;-2.56;97.77;99957.66;3409809;85;33359;-77
2022/12/13 02:57:36;;;;;;;10.98;5.28;;;;;;;-2.56;97.76;99956.30;3464488;84;98332;-77
2022/12/13 03:03:04;;;;;;;13.90;6.30;;;;;;;-2.54;97.79;99954.91;3484761;83;33465;-77
2022/12/13 03:08:25;;;;;;;11.23;5.00;;;;;;;-2.57;97.41;99951.45;3273589;89;98172;-77
2022/12/13 03:13:36;;;;;;;11.33;5.00;;;;;;;-2.56;97.72;99950.38;3422094;83;98794;-78
2022/12/13 03:18:38;;;;;;;12.43;4.77;;;;;;;-2.59;97.31;99946.13;3468120;83;25980;-78
2022/12/13 03:23:39;;;;;;;9.93;4.33;;;;;;;-2.65;97.19;99947.33;3469915;83;99133;-78
2022/12/13 03:28:41;;;;;;;8.50;4.17;;;;;;;-2.67;96.99;99953.58;3478249;84;33669;-77
2022/12/13 03:33:41;;;;;;;10.20;4.33;;;;;;;-2.66;97.15;99947.09;3453236;83;98585;-78
2022/12/13 03:38:43;;;;;;;10.73;5.10;;;;;;;-2.67;97.09;99949.54;3466444;84;33681;-78
2022/12/13 03:43:45;;;;;;;10.10;4.77;;;;;;;-2.67;97.19;99947.63;3467603;84;98781;-78
2022/12/13 03:48:46;;;;;;;11.33;4.57;;;;;;;-2.64;97.47;99948.92;3473437;83;33710;-78
2022/12/13 03:53:47;;;;;;;10.10;4.77;;;;;;;-2.60;97.46;99945.88;3472616;83;98865;-78
2022/12/13 03:58:47;;;;;;;12.47;4.87;;;;;;;-2.57;97.21;99937.98;3469494;83;33153;-79
2022/12/13 04:03:48;;;;;;;9.70;4.80;;;;;;;-2.56;97.19;99951.73;3456736;84;98441;-78
2022/12/13 04:08:51;;;;;;;10.13;4.60;;;;;;;-2.53;97.03;99944.91;3473192;84;32049;-77
2022/12/13 04:13:53;;;;;;;11.43;4.43;;;;;;;-2.51;97.15;99940.03;3467624;83;98918;-78
2022/12/13 04:18:54;;;;;;;9.73;5.03;;;;;;;-2.48;97.08;99940.76;3462124;84;33242;-78
2022/12/13 04:23:54;;;;;;;12.87;5.50;;;;;;;-2.46;97.12;99948.01;3457305;84;98692;-78
2022/12/13 04:28:55;;;;;;;12.78;5.72;;;;;;;-2.44;97.11;99941.75;3479992;83;33169;-78
2022/12/13 04:33:56;;;;;;;10.57;4.57;;;;;;;-2.42;96.80;99938.20;3460364;84;98547;-79
2022/12/13 04:38:57;;;;;;;10.53;4.87;;;;;;;-2.41;96.60;99941.94;3458792;84;29445;-78
2022/12/13 04:43:58;;;;;;;11.93;5.17;;;;;;;-2.38;96.88;99931.11;3471727;83;98609;-78
2022/12/13 04:48:59;;;;;;;11.60;4.70;;;;;;;-2.37;96.58;99941.59;3472551;84;27341;-78
2022/12/13 04:53:59;;;;;;;11.80;4.83;;;;;;;-2.34;96.68;99938.30;3467810;83;98500;-77
2022/12/13 04:59:00;;;;;;;9.30;4.50;;;;;;;-2.33;96.40;99935.04;3483895;83;31692;-78
2022/12/13 05:04:02;;;;;;;11.93;5.10;;;;;;;-2.32;96.30;99936.62;3460279;84;98466;-78
2022/12/13 05:09:03;;;;;;;11.13;4.97;;;;;;;-2.33;96.10;99926.95;3460212;83;31633;-78
2022/12/13 05:14:04;;;;;;;13.10;5.70;;;;;;;-2.32;96.15;99936.62;3461386;83;99063;-78
2022/12/13 05:19:05;;;;;;;12.50;5.23;;;;;;;-2.32;96.02;99940.67;3471131;84;32259;-78
2022/12/13 05:24:07;;;;;;;11.17;4.43;;;;;;;-2.32;96.01;99934.74;3460107;83;98997;-78
2022/12/13 05:29:08;;;;;;;12.17;5.50;;;;;;;-2.31;95.95;99936.87;3434237;84;32394;-76
2022/12/13 05:34:08;;;;;;;12.50;5.67;;;;;;;-2.29;95.93;99950.86;3425440;84;98879;-77
2022/12/13 05:39:09;;;;;;;12.97;4.83;;;;;;;-2.30;95.89;99947.35;3439902;84;31114;-78
2022/12/13 05:44:12;;;;;;;12.73;5.90;;;;;;;-2.29;96.08;99949.51;3436472;84;98928;-78
2022/12/13 05:49:13;;;;;;;13.73;5.97;;;;;;;-2.28;95.76;99946.52;3422021;84;31710;-82
2022/12/13 05:54:14;;;;;;;12.90;5.93;;;;;;;-2.29;95.85;99942.20;3436782;84;98925;-82
2022/12/13 05:59:15;;;;;;;10.87;4.90;;;;;;;-2.27;95.98;99949.98;3443956;84;30424;-81
2022/12/13 06:04:15;;;;;;;14.50;6.42;;;;;;;-2.27;95.96;99951.34;3432703;85;98934;-82
2022/12/13 06:09:17;;;;;;;12.67;5.70;;;;;;;-2.24;96.02;99948.83;3436300;84;27858;-82
2022/12/13 06:14:18;;;;;;;13.50;5.60;;;;;;;-2.23;96.26;99949.09;3428374;84;98816;-81
2022/12/13 06:19:21;;;;;;;14.47;5.70;;;;;;;-2.24;95.79;99951.52;3437029;84;34788;-81
2022/12/13 06:24:23;;;;;;;11.70;5.00;;;;;;;-2.26;95.79;99957.78;3431524;84;98821;-80
2022/12/13 06:29:24;;;;;;;12.50;5.40;;;;;;;-2.28;95.71;99959.98;3413938;85;25896;-81
2022/12/13 06:34:26;;;;;;;12.83;5.87;;;;;;;-2.31;95.72;99955.73;3433344;85;98470;-81
2022/12/13 06:39:28;;;;;;;11.90;5.20;;;;;;;-2.33;96.03;99968.19;3436410;84;27000;-81
2022/12/13 06:44:29;;;;;;;12.07;5.37;;;;;;;-2.35;95.76;99966.89;3432403;85;98802;-81
2022/12/13 06:49:30;;;;;;;13.57;5.37;;;;;;;-2.39;95.85;99974.79;3440006;84;34800;-81
2022/12/13 06:54:31;;;;;;;11.13;5.03;;;;;;;-2.39;95.85;99976.14;3396293;85;98876;-81
2022/12/13 06:59:32;;;;;;;13.33;6.67;;;;;;;-2.41;95.71;99982.92;3410651;85;34870;-82
2022/12/13 07:04:33;;;;;;;11.87;4.97;;;;;;;-2.42;95.55;99986.70;3395862;86;99012;-82
2022/12/13 07:09:34;;;;;;;10.87;5.23;;;;;;;-2.41;95.68;99985.62;3405172;85;34864;-82
2022/12/13 07:14:35;;;;;;;12.83;5.33;;;;;;;-2.40;95.23;99982.59;3454909;85;98851;-82
2022/12/13 07:19:35;;;;;;;12.57;4.77;;;;;;;-2.38;94.96;99993.89;3459534;84;34889;-81
2022/12/13 07:24:36;;;;;;;11.75;4.95;;;;;;;-2.37;95.12;99999.52;3460423;84;98760;-82
2022/12/13 07:29:37;;;;;;;12.40;6.00;;;;;;;-2.35;95.03;99997.31;3462499;85;33044;-81
2022/12/13 07:34:38;;;;;;;10.60;5.17;;;;;;;-2.31;95.41;100008.28;3450344;83;98848;-82
2022/12/13 07:39:39;;;;;;;11.93;6.17;;;;;;;-2.28;94.98;100005.80;3463596;85;33419;-81
2022/12/13 07:44:40;;;;;;;11.27;4.73;;;;;;;-2.23;94.87;100014.31;3458710;83;98671;-81
2022/12/13 07:49:41;;;;;;;13.07;5.30;;;;;;;-2.18;94.65;100015.55;3471772;83;32606;-81
2022/12/13 07:54:42;;;;;;;12.25;4.70;;;;;;;-2.15;94.38;100021.67;3479439;84;98910;-82
2022/12/13 07:59:43;;;;;;;10.63;4.83;;;;;;;-2.12;94.43;100025.94;3487209;84;32476;-81
2022/12/13 08:04:44;;;;;;;12.60;5.10;;;;;;;-2.17;93.80;100013.11;3484528;83;99009;-82
2022/12/13 08:09:44;;;;;;;14.80;6.02;;;;;;;-2.17;93.80;100013.11;3485268;83;32421;-82
2022/12/13 08:14:45;;;;;;;12.50;5.33;;;;;;;-2.02;93.41;100024.34;3483815;84;99115;-82
2022/12/13 08:19:46;;;;;;;10.03;4.53;;;;;;;-1.98;93.20;100032.07;3476938;83;26444;-81
2022/12/13 08:24:47;;;;;;;12.43;4.57;;;;;;;-1.96;92.84;100031.23;3478438;83;98942;-82
2022/12/13 08:29:47;;;;;;;9.67;4.90;;;;;;;-1.95;93.76;100036.06;3478805;84;26599;-82
2022/12/13 08:34:48;;;;;;;10.37;4.97;;;;;;;-1.93;93.94;100029.27;3476837;83;98745;-81
2022/12/13 08:39:49;;;;;;;12.60;4.40;;;;;;;-1.91;94.19;100035.14;3487003;83;26122;-81
2022/12/13 08:44:52;;;;;;;14.13;6.37;;;;;;;-1.91;94.41;100045.92;3475889;83;98893;-81
2022/12/13 08:49:57;;;;;;;10.00;4.40;;;;;;;-1.90;95.27;100050.24;3490449;83;26413;-82
2022/12/13 08:55:01;;;;;;;11.57;5.27;;;;;;;-1.89;94.83;100052.37;3487966;84;98721;-83
2022/12/13 09:00:07;;;;;;;12.27;5.80;;;;;;;-1.88;94.70;100053.95;3469064;84;27334;-83
2022/12/13 09:05:10;;;;;;;10.20;4.50;;;;;;;-1.89;95.59;100060.45;3472919;83;98716;-83
2022/12/13 09:10:11;;;;;;;12.13;5.87;;;;;;;-1.83;96.38;100055.19;3482132;84;28280;-82
2022/12/13 09:15:12;;;;;;;13.33;5.03;;;;;;;-1.77;96.44;100058.83;3483196;83;98855;-83
2022/12/13 09:20:13;;;;;;;13.50;6.37;;;;;;;-1.75;95.99;100059.88;3489210;83;26421;-82
2022/12/13 09:25:14;;;;;;;12.23;4.93;;;;;;;-1.70;95.84;100053.80;3471841;83;98723;-82
2022/12/13 09:30:15;;;;;;;44.57;16.37;;;;;;;-1.64;95.57;100059.89;3483733;83;26416;-82
2022/12/13 09:35:16;;;;;;;14.87;5.17;;;;;;;-1.60;95.92;100066.28;3475203;83;98789;-82
2022/12/13 09:40:25;;;;;;;11.20;4.83;;;;;;;-1.57;95.61;100067.81;3488948;83;25856;-83
2022/12/13 09:45:28;;;;;;;12.90;6.08;;;;;;;-1.52;95.74;100062.30;3486925;83;98711;-82
2022/12/13 09:50:33;;;;;;;11.47;4.83;;;;;;;-1.45;96.03;100071.29;3485789;83;27344;-82
2022/12/13 09:55:46;;;;;;;14.80;5.90;;;;;;;-1.39;95.68;100072.77;3477256;84;98961;-83
2022/12/13 10:00:52;;;;;;;19.67;8.23;;;;;;;-1.31;96.10;100073.39;3487699;83;57060;-83
2022/12/13 10:06:00;;;;;;;13.03;5.45;;;;;;;-1.22;95.51;100068.86;3479890;83;98844;-83
2022/12/13 10:11:02;;;;;;;10.40;5.10;;;;;;;-1.17;94.86;100069.52;3482659;84;27492;-83
2022/12/13 10:16:08;;;;;;;15.43;6.37;;;;;;;-1.12;95.30;100074.79;3476846;83;98704;-84
2022/12/13 10:21:30;;;;;;;18.00;7.10;;;;;;;-1.06;95.42;100081.65;3471825;84;27398;-84
2022/12/13 10:26:36;;;;;;;11.17;5.90;;;;;;;-1.00;95.29;100077.71;3474213;84;98580;-83
2022/12/13 10:31:48;;;;;;;14.23;6.23;;;;;;;-0.95;95.40;100081.63;3472587;83;27498;-83
2022/12/13 10:36:50;;;;;;;14.43;6.37;;;;;;;-0.92;94.88;100072.13;3412630;85;98505;-83
2022/12/13 10:41:57;;;;;;;17.47;7.03;;;;;;;-0.89;94.32;100075.56;3480536;84;27323;-85
2022/12/13 10:47:17;;;;;;;13.60;6.05;;;;;;;-0.86;94.37;100069.52;3478236;83;98675;-84
2022/12/13 10:52:32;;;;;;;27.03;10.27;;;;;;;-0.89;93.38;100068.81;3465353;84;27519;-84
2022/12/13 10:57:33;;;;;;;17.57;6.73;;;;;;;-0.85;94.00;100059.77;3474543;83;98770;-83
2022/12/13 11:02:38;;;;;;;12.87;5.43;;;;;;;-0.82;93.69;100056.43;3485692;83;25944;-83
2022/12/13 11:07:39;;;;;;;16.93;6.77;;;;;;;-0.81;93.22;100058.59;3476132;83;98864;-82
2022/12/13 11:12:41;;;;;;;18.27;8.20;;;;;;;-0.75;93.79;100066.25;3470101;83;26150;-83
2022/12/13 11:17:50;;;;;;;23.43;9.70;;;;;;;-0.71;93.76;100055.05;3468044;83;98498;-83
2022/12/13 11:23:20;;;;;;;26.20;10.63;;;;;;;-0.68;93.71;100057.68;3487973;83;28096;-83
2022/12/13 11:28:41;;;;;;;18.20;8.63;;;;;;;-0.65;93.72;100067.34;3476842;84;27660;-85
2022/12/13 11:34:11;;;;;;;20.50;6.67;;;;;;;-0.66;93.70;100058.19;3477916;83;98617;-83
2022/12/13 11:39:31;;;;;;;22.40;7.77;;;;;;;-0.65;94.10;100059.23;3481437;83;27409;-82
2022/12/13 11:44:54;;;;;;;17.37;7.50;;;;;;;-0.63;94.06;100065.11;3479685;83;98857;-82
2022/12/13 11:49:56;;;;;;;19.40;7.17;;;;;;;-0.60;94.44;100062.34;3481964;83;27600;-82
2022/12/13 11:55:11;;;;;;;20.25;9.53;;;;;;;-0.59;94.19;100066.63;3428184;84;98655;-83
2022/12/13 12:00:30;;;;;;;16.60;7.53;;;;;;;-0.59;94.05;100072.03;3429232;84;27398;-82
2022/12/13 12:05:37;;;;;;;14.25;7.00;;;;;;;-0.59;94.55;100075.55;3417801;85;99109;-83
2022/12/13 12:10:44;;;;;;;21.03;8.73;;;;;;;-0.58;94.50;100076.33;3430823;84;27484;-82
2022/12/13 12:16:14;;;;;;;22.23;9.53;;;;;;;-0.58;93.78;100085.78;3429399;83;99200;-82
2022/12/13 12:21:25;;;;;;;15.17;6.80;;;;;;;-0.55;93.53;100090.01;3439714;84;27534;-83
2022/12/13 12:26:38;;;;;;;15.72;7.08;;;;;;;-0.57;93.61;100095.48;3433988;84;98762;-82
2022/12/13 12:32:17;;;;;;;16.37;6.53;;;;;;;-0.56;93.59;100090.34;3436134;84;27561;-82
2022/12/13 12:37:29;;;;;;;16.63;8.03;;;;;;;-0.51;93.80;100094.27;3424034;84;98703;-81
2022/12/13 12:43:00;;;;;;;16.87;7.17;;;;;;;-0.47;93.59;100093.86;3421498;84;27453;-82
2022/12/13 12:48:49;;;;;;;22.63;9.57;;;;;;;-0.47;93.54;100093.31;3420271;84;98492;-83
2022/12/13 12:54:14;;;;;;;19.17;8.93;;;;;;;-0.44;93.42;100092.67;3457226;82;99035;-82
2022/12/13 12:59:52;;;;;;;17.12;7.85;;;;;;;-0.44;92.95;100089.97;3498850;82;33182;-82
2022/12/13 13:04:59;;;;;;;15.07;6.47;;;;;;;-0.40;92.78;100094.22;3489425;83;98741;-83
2022/12/13 13:10:00;;;;;;;;;;;;;;;-0.44;91.78;100106.19;3493211;82;27227;-83
2022/12/13 13:15:33;;;;;;;15.88;6.10;;;;;;;-0.44;91.90;100102.70;3499564;82;84784;-82
2022/12/13 13:20:34;;;;;;;15.13;7.13;;;;;;;-0.44;91.81;100108.11;3498363;82;28297;-83
2022/12/13 13:25:35;;;;;;;16.03;7.47;;;;;;;-0.45;92.27;100112.70;3498787;83;98658;-82
2022/12/13 13:30:36;;;;;;;17.13;7.17;;;;;;;-0.46;91.89;100120.58;3502124;82;26320;-82
2022/12/13 13:35:49;;;;;;;19.57;7.67;;;;;;;-0.48;91.94;100120.11;3498618;82;98737;-82
2022/12/13 13:40:50;;;;;;;23.17;10.20;;;;;;;-0.48;91.57;100116.05;3507202;82;25841;-83
2022/12/13 13:45:56;;;;;;;23.30;10.67;;;;;;;-0.49;91.39;100127.98;3495287;83;99034;-83
2022/12/13 13:51:27;;;;;;;37.07;17.53;;;;;;;-0.52;91.65;100124.53;3512527;82;28750;-83
2022/12/13 13:57:07;;;;;;;19.00;9.03;;;;;;;-0.70;91.48;100101.79;3482877;83;98900;-82
2022/12/13 14:02:39;;;;;;;16.70;7.40;;;;;;;-0.60;90.86;100140.13;3483820;83;28657;-82
2022/12/13 14:08:18;;;;;;;16.03;8.63;;;;;;;-0.65;91.26;100144.34;3469382;83;98473;-82
2022/12/13 14:13:44;;;;;;;16.70;7.33;;;;;;;-0.65;91.29;100147.59;3472191;83;98713;-82
2022/12/13 14:19:35;;;;;;;21.40;7.50;;;;;;;-0.68;91.21;100145.50;3477222;83;27545;-78
2022/12/13 14:24:56;;;;;;;15.98;8.63;;;;;;;-0.73;90.79;100145.08;3465071;84;98725;-77
2022/12/13 14:29:57;;;;;;;17.27;7.60;;;;;;;-0.73;91.23;100152.41;3480976;83;27687;-77
2022/12/13 14:34:59;;;;;;;17.83;7.60;;;;;;;-0.75;90.72;100158.66;3475559;84;98891;-77
2022/12/13 14:40:04;;;;;;;17.67;7.00;;;;;;;-0.79;90.93;100153.08;3492271;83;27452;-77
2022/12/13 14:45:28;;;;;;;16.32;7.37;;;;;;;-0.82;91.00;100156.95;3483241;83;98714;-78
2022/12/13 14:50:33;;;;;;;20.43;8.10;;;;;;;-0.84;90.63;100169.95;3488347;83;28886;-79
2022/12/13 14:55:36;;;;;;;23.73;9.10;;;;;;;-0.86;90.72;100167.58;3479000;83;99498;-78
2022/12/13 15:00:40;;;;;;;27.83;11.40;;;;;;;-0.89;90.79;100164.70;3483030;83;27446;-76
2022/12/13 15:05:45;;;;;;;22.85;10.15;;;;;;;-0.92;90.97;100175.56;3481899;83;98866;-77
2022/12/13 15:10:49;;;;;;;29.27;11.97;;;;;;;-0.94;90.84;100176.97;3482471;83;28867;-78
2022/12/13 15:15:59;;;;;;;26.93;10.32;;;;;;;-0.97;90.56;100180.28;3481206;83;98917;-77
2022/12/13 15:20:59;;;;;;;70.95;28.62;;;;;;;-0.98;90.83;100180.03;3484184;84;32333;-77
2022/12/13 15:26:17;;;;;;;45.37;18.90;;;;;;;-1.03;90.91;100176.91;3479836;83;99079;-77
2022/12/13 15:31:19;;;;;;;27.13;11.90;;;;;;;-1.04;90.88;100183.97;3479650;83;29971;-78
2022/12/13 15:36:27;;;;;;;17.87;9.13;;;;;;;-1.05;91.35;100183.16;3473683;83;98968;-79
2022/12/13 15:41:33;;;;;;;27.63;12.60;;;;;;;-1.06;90.91;100191.55;3477667;83;27415;-78
2022/12/13 15:46:39;;;;;;;28.90;12.82;;;;;;;-1.09;91.08;100197.02;3482063;83;99134;-78
2022/12/13 15:51:59;;;;;;;20.82;9.40;;;;;;;-1.08;90.81;100192.42;3476927;83;28515;-78
2022/12/13 15:57:25;;;;;;;27.55;10.70;;;;;;;-1.10;90.99;100195.42;3494993;83;98557;-78
2022/12/13 16:02:28;;;;;;;46.50;18.98;;;;;;;-1.14;91.27;100187.71;3506990;82;27570;-78
2022/12/13 16:07:39;;;;;;;31.97;13.80;;;;;;;-1.13;91.43;100191.19;3497248;82;98719;-79
2022/12/13 16:12:54;;;;;;;20.10;11.40;;;;;;;-1.16;91.46;100191.25;3501528;82;28848;-78
2022/12/13 16:18:15;;;;;;;22.20;9.67;;;;;;;-1.21;91.31;100188.66;3496235;82;98736;-77
2022/12/13 16:23:16;;;;;;;21.57;9.70;;;;;;;-1.25;91.27;100193.09;3485430;82;107465;-79
2022/12/13 16:28:17;;;;;;;22.47;10.57;;;;;;;-1.27;91.42;100189.88;3499553;83;26046;-79
2022/12/13 16:33:23;;;;;;;33.53;12.70;;;;;;;-1.27;91.73;100191.80;3497334;82;98791;-80
2022/12/13 16:38:24;;;;;;;28.45;12.63;;;;;;;-1.29;91.47;100188.05;3491866;82;27394;-79
2022/12/13 16:43:26;;;;;;;27.20;12.80;;;;;;;-1.33;91.71;100199.20;3494042;82;99069;-79
2022/12/13 16:48:27;;;;;;;25.90;11.10;;;;;;;-1.38;91.39;100194.48;3502315;82;26165;-79
2022/12/13 16:53:28;;;;;;;26.75;12.47;;;;;;;-1.38;91.25;100194.48;3489962;82;107189;-79
2022/12/13 16:58:28;;;;;;;29.17;13.23;;;;;;;-1.41;91.29;100195.89;3417502;84;26301;-80
2022/12/13 17:03:29;;;;;;;29.83;12.27;;;;;;;-1.38;91.82;100202.58;3416861;84;99079;-79
2022/12/13 17:08:32;;;;;;;25.00;10.40;;;;;;;-1.39;91.33;100196.91;3424794;85;26505;-78
2022/12/13 17:13:32;;;;;;;24.70;11.70;;;;;;;-1.44;91.01;100191.62;3417296;84;98905;-79
2022/12/13 17:18:33;;;;;;;22.37;9.10;;;;;;;-1.46;91.02;100191.14;3427544;85;25945;-79
2022/12/13 17:23:34;;;;;;;21.15;10.10;;;;;;;-1.49;90.69;100195.24;3423496;84;98652;-79
2022/12/13 17:28:36;;;;;;;23.27;10.63;;;;;;;-1.51;90.99;100192.05;3427313;85;26347;-79
2022/12/13 17:33:37;;;;;;;26.37;10.83;;;;;;;-1.52;91.15;100194.52;3425851;84;99092;-79
2022/12/13 17:38:45;;;;;;;29.07;11.73;;;;;;;-1.52;91.14;100196.41;3419779;86;26514;-79
2022/12/13 17:43:45;;;;;;;35.50;14.13;;;;;;;-1.56;90.79;100197.56;3413534;84;99109;-79
2022/12/13 17:48:46;;;;;;;27.77;11.70;;;;;;;-1.57;90.60;100197.31;3420382;85;25893;-79
2022/12/13 17:53:47;;;;;;;29.32;11.93;;;;;;;-1.60;90.46;100198.48;3422912;85;99075;-79
2022/12/13 17:58:48;;;;;;;29.70;13.43;;;;;;;-1.61;90.88;100199.02;3395640;85;26242;-78
2022/12/13 18:03:52;;;;;;;27.60;10.53;;;;;;;-1.61;90.60;100204.41;3401596;85;99051;-79
2022/12/13 18:08:53;;;;;;;28.33;10.90;;;;;;;-1.62;90.91;100201.47;3473881;83;27056;-77
2022/12/13 18:13:55;;;;;;;22.50;9.90;;;;;;;-1.61;91.18;100209.80;3476005;83;98921;-78
2022/12/13 18:18:56;;;;;;;21.33;9.30;;;;;;;-1.60;90.72;100216.02;3481962;83;26568;-77
2022/12/13 18:23:58;;;;;;;18.77;8.13;;;;;;;-1.61;90.68;100217.91;3475375;83;99248;-77
2022/12/13 18:28:59;;;;;;;29.50;14.17;;;;;;;-1.64;90.18;100216.36;3480653;83;27565;-76
2022/12/13 18:34:00;;;;;;;55.77;22.43;;;;;;;-1.63;90.56;100213.37;3476366;83;99006;-77
2022/12/13 18:39:01;;;;;;;41.23;14.90;;;;;;;-1.64;90.00;100221.75;3504329;82;26323;-78
2022/12/13 18:44:06;;;;;;;43.33;15.80;;;;;;;-1.67;89.97;100225.86;3495254;82;100545;-78
2022/12/13 18:49:10;;;;;;;32.67;13.53;;;;;;;-1.73;89.81;100232.45;3496519;82;28752;-79
2022/12/13 18:54:11;;;;;;;32.23;13.70;;;;;;;-1.74;89.79;100235.45;3492197;82;98678;-79
2022/12/13 18:59:11;;;;;;;33.70;13.33;;;;;;;-1.88;89.64;100216.57;3423980;86;26507;-79
2022/12/13 19:04:13;;;;;;;33.83;13.80;;;;;;;-1.83;89.63;100242.62;3420986;84;99177;-79
2022/12/13 19:09:13;;;;;;;36.33;13.90;;;;;;;-1.86;89.40;100238.64;3425062;85;26359;-78
2022/12/13 19:14:14;;;;;;;35.83;16.10;;;;;;;-1.89;89.78;100227.11;3421742;84;99222;-78
2022/12/13 19:19:15;;;;;;;41.50;18.43;;;;;;;-1.89;89.45;100235.20;3429618;84;26348;-77
2022/12/13 19:24:17;;;;;;;43.83;17.00;;;;;;;-1.92;89.18;100239.84;3423332;84;98747;-77
2022/12/13 19:29:18;;;;;;;46.03;19.47;;;;;;;-1.96;89.15;100233.47;3430445;84;26362;-78
2022/12/13 19:34:19;;;;;;;43.83;20.00;;;;;;;-1.98;89.06;100237.56;3426238;84;99074;-78
2022/12/13 19:39:20;;;;;;;45.07;19.23;;;;;;;-1.99;89.11;100227.30;3423628;84;26446;-77
2022/12/13 19:44:20;;;;;;;38.90;17.48;;;;;;;-2.00;89.15;100237.84;3416827;84;98551;-77
2022/12/13 19:49:21;;;;;;;51.50;22.67;;;;;;;-1.99;89.49;100234.58;3420683;84;33306;-79
2022/12/13 19:54:29;;;;;;;51.30;22.62;;;;;;;-1.99;89.37;100234.58;3416697;84;99020;-79
2022/12/13 19:59:28;;;;;;;61.50;25.00;;;;;;;-2.01;89.46;100240.84;3473380;84;33281;-79
2022/12/13 20:04:29;;;;;;;57.93;24.80;;;;;;;-1.99;89.85;100242.67;3475559;83;98811;-79
2022/12/13 20:09:30;;;;;;;59.57;26.73;;;;;;;-1.98;90.13;100242.95;3476000;83;33172;-78
2022/12/13 20:14:31;;;;;;;56.47;24.53;;;;;;;-2.00;89.92;100232.45;3468524;83;98893;-79
2022/12/13 20:19:32;;;;;;;56.20;23.00;;;;;;;-2.02;89.83;100237.90;3475787;83;33223;-79
2022/12/13 20:24:32;;;;;;;54.87;23.33;;;;;;;-2.07;89.79;100246.08;3475133;83;99323;-78
2022/12/13 20:29:33;;;;;;;61.77;26.63;;;;;;;-2.10;89.71;100238.03;3477011;83;33958;-78
2022/12/13 20:34:34;;;;;;;54.57;24.47;;;;;;;-2.15;89.81;100234.08;3480008;83;98843;-78
2022/12/13 20:39:35;;;;;;;58.77;23.90;;;;;;;-2.21;89.90;100236.63;3477970;83;31161;-79
2022/12/13 20:44:36;;;;;;;67.40;27.50;;;;;;;-2.28;90.68;100234.06;3479435;83;99114;-79
2022/12/13 20:49:37;;;;;;;63.63;27.87;;;;;;;-2.35;90.57;100231.75;3470808;83;31676;-80
2022/12/13 20:54:38;;;;;;;75.77;28.47;;;;;;;-2.42;90.25;100231.88;3472599;83;98879;-78
2022/12/13 20:59:39;;;;;;;86.00;30.50;;;;;;;-2.52;90.93;100224.78;3493783;82;31592;-78
2022/12/13 21:04:41;;;;;;;80.60;32.73;;;;;;;-2.64;91.30;100233.88;3494582;82;98634;-79
2022/12/13 21:09:41;;;;;;;81.73;33.67;;;;;;;-2.74;91.08;100231.35;3477304;82;31871;-79
2022/12/13 21:14:42;;;;;;;76.97;32.23;;;;;;;-2.85;91.09;100243.94;3503072;82;98635;-79
2022/12/13 21:19:45;;;;;;;72.67;33.40;;;;;;;-2.97;91.74;100245.72;3504716;82;31709;-78
2022/12/13 21:24:46;;;;;;;73.77;31.60;;;;;;;-3.08;92.12;100244.27;3503684;82;98640;-78
2022/12/13 21:29:47;;;;;;;81.50;38.90;;;;;;;-3.21;92.58;100253.09;3509268;82;25938;-78
2022/12/13 21:34:47;;;;;;;94.13;41.53;;;;;;;-3.30;92.81;100246.75;3499293;82;98905;-79
2022/12/13 21:39:49;;;;;;;97.50;38.53;;;;;;;-3.40;93.25;100245.53;3514746;82;31607;-80
2022/12/13 21:44:50;;;;;;;84.73;33.17;;;;;;;-3.51;93.72;100241.38;3483869;82;98700;-79
2022/12/13 21:49:50;;;;;;;85.90;34.63;;;;;;;-3.64;94.07;100234.03;3497327;82;30784;-78
2022/12/13 21:54:51;;;;;;;81.87;33.50;;;;;;;-3.77;94.26;100232.59;3491715;82;99087;-77
2022/12/13 21:59:52;;;;;;;81.50;35.23;;;;;;;-3.79;94.53;100246.84;3455666;82;26455;-79
2022/12/13 22:04:56;;;;;;;94.90;37.77;;;;;;;-3.91;94.70;100240.55;3464532;83;98845;-78
2022/12/13 22:09:59;;;;;;;81.83;36.37;;;;;;;-4.01;94.80;100246.56;3463885;83;26362;-79
2022/12/13 22:15:01;;;;;;;85.30;35.83;;;;;;;-4.13;95.02;100240.80;3475842;83;99148;-80
2022/12/13 22:20:05;;;;;;;90.97;37.17;;;;;;;-4.22;95.30;100245.17;3482683;83;26218;-79
2022/12/13 22:25:07;;;;;;;93.72;39.78;;;;;;;-4.30;95.59;100238.56;3470338;83;98900;-80
2022/12/13 22:30:09;;;;;;;84.67;40.03;;;;;;;-4.37;95.75;100236.73;3477916;83;26444;-79
2022/12/13 22:35:10;;;;;;;96.17;41.77;;;;;;;-4.44;96.02;100238.95;3492689;83;98905;-80
2022/12/13 22:40:11;;;;;;;89.03;38.93;;;;;;;-4.51;96.39;100237.68;3467506;83;26482;-79
2022/12/13 22:45:12;;;;;;;90.67;38.43;;;;;;;-4.59;96.43;100228.35;3461007;83;98920;-76
2022/12/13 22:50:14;;;;;;;79.77;38.03;;;;;;;-4.62;96.48;100233.48;3459708;83;35482;-78
2022/12/13 22:55:15;;;;;;;95.83;42.23;;;;;;;-4.74;96.30;100223.11;3464884;83;99115;-78
2022/12/13 23:00:16;;;;;;;88.92;40.90;;;;;;;-4.80;96.61;100223.45;3482476;83;34890;-78
2022/12/13 23:05:17;;;;;;;92.13;39.33;;;;;;;-4.85;97.09;100220.81;3468778;83;99083;-78
2022/12/13 23:15:37;;;;;;;199.43;103.63;;;;;;;-4.96;97.74;100214.70;3468417;83;99348;-78
2022/12/13 23:20:38;;;;;;;222.57;92.87;;;;;;;-5.01;97.77;100213.43;3477851;83;35528;-78
2022/12/13 23:25:40;;;;;;;262.00;85.10;;;;;;;-5.07;98.06;100209.72;3463211;84;99335;-79
2022/12/13 23:30:41;;;;;;;146.90;56.63;;;;;;;-5.10;98.29;100199.53;3469580;83;34933;-78